Time;durP1;ratioP1;P1;durP2;ratioP2;P2;SDS_P1;SDS_P2;PMS_P1;PMS_P2;Temp;Humidity;BMP_temperature;BMP_pressure;BME280_temperature;BME280_humidity;BME280_pressure;Samples;Min_cycle;Max_cycle;Signal;HPM_P1;HPM_P2
2023/12/10 00:00:58;;;;;;;31.50;6.97;;;8.50;90.00;;;;;;5094884;28;20058;-81
2023/12/10 00:03:24;;;;;;;39.30;6.97;;;8.50;89.60;;;;;;5094974;28;20052;-82
2023/12/10 00:05:50;;;;;;;29.38;6.60;;;8.50;89.60;;;;;;5094886;28;20059;-81
2023/12/10 00:08:16;;;;;;;33.10;6.55;;;8.50;89.50;;;;;;5094567;28;20479;-81
2023/12/10 00:10:42;;;;;;;27.38;6.72;;;8.60;89.30;;;;;;5128486;27;20036;-82
2023/12/10 00:13:09;;;;;;;21.42;4.40;;;8.60;89.30;;;;;;5077572;28;20557;-81
2023/12/10 00:15:37;;;;;;;21.30;4.65;;;8.60;89.40;;;;;;5094440;28;20551;-83
2023/12/10 00:18:03;;;;;;;30.33;5.65;;;8.60;89.30;;;;;;5095055;28;20044;-83
2023/12/10 00:20:29;;;;;;;19.63;4.18;;;8.60;89.20;;;;;;5077651;28;20571;-80
2023/12/10 00:22:55;;;;;;;26.00;5.22;;;8.60;89.20;;;;;;5061137;28;20123;-82
2023/12/10 00:25:20;;;;;;;17.10;4.45;;;8.60;89.10;;;;;;5077671;28;20472;-80
2023/12/10 00:27:46;;;;;;;18.63;4.57;;;8.60;89.50;;;;;;5077350;28;20035;-82
2023/12/10 00:30:13;;;;;;;31.08;7.35;;;8.60;89.30;;;;;;5076994;28;20102;-81
2023/12/10 00:32:39;;;;;;;22.52;4.97;;;8.50;89.80;;;;;;5093888;28;20396;-83
2023/12/10 00:35:06;;;;;;;24.02;5.50;;;8.50;90.10;;;;;;5077318;28;20056;-83
2023/12/10 00:37:32;;;;;;;16.20;4.63;;;8.50;90.30;;;;;;5094848;28;20405;-83
2023/12/10 00:39:59;;;;;;;20.25;4.97;;;8.40;91.30;;;;;;5060773;28;20032;-83
2023/12/10 00:42:25;;;;;;;27.00;4.95;;;8.30;91.80;;;;;;5094799;28;20044;-83
2023/12/10 00:44:51;;;;;;;19.85;4.70;;;8.30;92.40;;;;;;5110870;28;20042;-80
2023/12/10 00:47:16;;;;;;;25.88;6.47;;;8.30;92.50;;;;;;5076811;28;20131;-80
2023/12/10 00:49:43;;;;;;;30.60;6.50;;;8.20;93.40;;;;;;5060277;28;20127;-80
2023/12/10 00:52:08;;;;;;;24.33;4.80;;;8.10;93.80;;;;;;5094281;28;20169;-81
2023/12/10 00:54:34;;;;;;;25.98;5.05;;;8.20;93.50;;;;;;5093867;28;20556;-81
2023/12/10 00:57:00;;;;;;;25.00;4.60;;;8.10;93.60;;;;;;5094077;28;20039;-81
2023/12/10 00:59:26;;;;;;;27.10;5.65;;;8.10;94.20;;;;;;5077052;28;20092;-80
2023/12/10 01:01:52;;;;;;;31.90;5.38;;;8.00;94.60;;;;;;5076779;28;20486;-80
2023/12/10 01:04:18;;;;;;;19.73;4.65;;;8.00;94.50;;;;;;5093698;28;20578;-82
2023/12/10 01:06:45;;;;;;;30.85;6.30;;;8.00;94.50;;;;;;5076804;28;20075;-81
2023/12/10 01:09:11;;;;;;;27.75;6.60;;;7.90;94.50;;;;;;5076753;28;20036;-81
2023/12/10 01:11:37;;;;;;;32.47;5.95;;;7.80;95.40;;;;;;5093404;28;20051;-79
2023/12/10 01:14:03;;;;;;;37.40;7.88;;;7.80;95.20;;;;;;5093541;28;20541;-84
2023/12/10 01:16:29;;;;;;;23.80;5.25;;;7.80;95.70;;;;;;5093253;28;20135;-81
2023/12/10 01:18:55;;;;;;;29.38;5.50;;;7.80;95.60;;;;;;5076242;28;20496;-80
2023/12/10 01:21:21;;;;;;;35.97;7.10;;;7.90;95.30;;;;;;5076230;28;20075;-79
2023/12/10 01:23:49;;;;;;;25.77;5.22;;;7.90;95.20;;;;;;5093087;28;20067;-79
2023/12/10 01:26:15;;;;;;;30.48;6.60;;;7.90;95.40;;;;;;5110262;28;20113;-80
2023/12/10 01:28:41;;;;;;;39.35;6.53;;;7.80;95.60;;;;;;5076122;28;20040;-80
2023/12/10 01:31:06;;;;;;;37.15;5.93;;;7.90;95.50;;;;;;5093136;28;20097;-80
2023/12/10 01:33:33;;;;;;;29.23;5.78;;;7.90;95.60;;;;;;5092913;28;20044;-78
2023/12/10 01:35:59;;;;;;;32.03;7.40;;;7.90;95.50;;;;;;5092748;28;20458;-82
2023/12/10 01:38:24;;;;;;;19.42;6.35;;;7.90;95.80;;;;;;5075971;28;20036;-81
2023/12/10 01:40:50;;;;;;;25.52;5.10;;;7.90;95.90;;;;;;5075926;28;20055;-81
2023/12/10 01:43:19;;;;;;;27.52;5.97;;;7.90;95.90;;;;;;5075691;28;20032;-81
2023/12/10 01:45:53;;;;;;;31.17;6.03;;;7.80;96.10;;;;;;5093025;28;20036;-82
2023/12/10 01:48:23;;;;;;;31.00;7.43;;;7.80;96.50;;;;;;5076180;28;20036;-81
2023/12/10 01:50:50;;;;;;;23.63;4.97;;;7.80;96.70;;;;;;5076216;28;20040;-79
2023/12/10 01:53:16;;;;;;;30.80;6.40;;;7.80;96.30;;;;;;5093085;28;20040;-81
2023/12/10 01:55:44;;;;;;;28.25;6.53;;;7.80;96.40;;;;;;5076166;28;20044;-80
2023/12/10 01:58:10;;;;;;;29.38;5.47;;;7.70;96.80;;;;;;5076227;28;20596;-81
2023/12/10 02:00:38;;;;;;;26.55;5.93;;;7.70;96.90;;;;;;5092941;28;20040;-79
2023/12/10 02:03:04;;;;;;;22.20;4.82;;;7.80;96.80;;;;;;5059253;28;20039;-82
2023/12/10 02:05:30;;;;;;;25.05;6.55;;;7.80;96.60;;;;;;5092679;28;20052;-80
2023/12/10 02:07:56;;;;;;;31.02;5.05;;;7.80;96.40;;;;;;5092406;28;20519;-80
2023/12/10 02:10:21;;;;;;;22.65;5.05;;;7.90;96.30;;;;;;5075284;28;20051;-81
2023/12/10 02:12:48;;;;;;;23.80;5.40;;;7.80;96.50;;;;;;5075637;28;20042;-80
2023/12/10 02:15:15;;;;;;;32.17;4.63;;;7.80;96.50;;;;;;5092188;28;20083;-80
2023/12/10 02:17:41;;;;;;;24.48;5.38;;;7.80;96.40;;;;;;5092772;28;20123;-80
2023/12/10 02:20:12;;;;;;;27.05;5.78;;;7.90;96.50;;;;;;5092879;28;20118;-80
2023/12/10 02:22:47;;;;;;;25.52;5.07;;;7.90;96.40;;;;;;5076154;28;20499;-80
2023/12/10 02:25:14;;;;;;;26.77;7.10;;;7.80;96.50;;;;;;5092779;28;20128;-79
2023/12/10 02:27:41;;;;;;;28.33;4.95;;;7.80;96.70;;;;;;5092583;28;20383;-83
2023/12/10 02:30:09;;;;;;;28.95;5.25;;;7.80;96.90;;;;;;5092804;28;20354;-80
2023/12/10 02:32:35;;;;;;;22.85;4.85;;;7.80;96.90;;;;;;5076279;28;20032;-80
2023/12/10 02:35:00;;;;;;;22.08;6.32;;;7.90;96.80;;;;;;5075355;28;20497;-78
2023/12/10 02:37:26;;;;;;;27.05;6.55;;;7.80;96.90;;;;;;5092025;28;20044;-78
2023/12/10 02:39:52;;;;;;;22.23;4.38;;;7.80;97.00;;;;;;5075747;28;20044;-80
2023/12/10 02:42:17;;;;;;;18.23;4.53;;;7.80;97.30;;;;;;5075507;28;20097;-79
2023/12/10 02:44:43;;;;;;;25.33;5.55;;;7.70;97.60;;;;;;5075594;28;20063;-82
2023/12/10 02:47:09;;;;;;;25.80;5.90;;;7.80;97.50;;;;;;5058510;28;20090;-81
2023/12/10 02:49:35;;;;;;;20.60;4.65;;;7.70;97.60;;;;;;5092269;28;20050;-83
2023/12/10 02:52:00;;;;;;;30.83;6.05;;;7.70;97.80;;;;;;5075325;28;20149;-79
2023/12/10 02:54:26;;;;;;;29.25;5.95;;;7.80;97.70;;;;;;5093460;28;20046;-81
2023/12/10 02:56:52;;;;;;;30.75;5.43;;;7.80;97.40;;;;;;5095694;28;20040;-82
2023/12/10 02:59:17;;;;;;;25.42;4.63;;;7.80;97.40;;;;;;5062015;28;20082;-81
2023/12/10 03:01:43;;;;;;;17.13;4.47;;;7.70;97.70;;;;;;5079300;28;20051;-81
2023/12/10 03:04:09;;;;;;;18.95;4.20;;;7.70;97.80;;;;;;5095703;28;20052;-79
2023/12/10 03:06:35;;;;;;;21.83;5.05;;;7.70;97.60;;;;;;5095771;28;20090;-78
2023/12/10 03:09:00;;;;;;;29.35;5.50;;;7.70;98.10;;;;;;5095609;28;20373;-83
2023/12/10 03:11:26;;;;;;;21.55;5.32;;;7.70;98.30;;;;;;5095776;28;20043;-81
2023/12/10 03:13:52;;;;;;;19.90;4.00;;;7.70;98.20;;;;;;5095556;28;20127;-79
2023/12/10 03:16:17;;;;;;;29.33;4.72;;;7.80;98.10;;;;;;5061682;28;20093;-81
2023/12/10 03:18:43;;;;;;;14.95;3.58;;;7.80;98.60;;;;;;5078515;28;20481;-80
2023/12/10 03:21:09;;;;;;;27.92;5.70;;;7.80;98.40;;;;;;5095456;28;20058;-81
2023/12/10 03:23:34;;;;;;;32.45;6.45;;;7.80;98.30;;;;;;5095326;28;20036;-82
2023/12/10 03:26:00;;;;;;;25.40;5.35;;;7.90;98.30;;;;;;5095263;28;20057;-81
2023/12/10 03:28:26;;;;;;;22.88;4.43;;;7.90;98.40;;;;;;5078625;28;20048;-81
2023/12/10 03:30:51;;;;;;;29.83;6.03;;;8.00;98.20;;;;;;5095605;28;20120;-84
2023/12/10 03:33:17;;;;;;;34.92;5.13;;;8.00;98.10;;;;;;5095291;28;20488;-79
2023/12/10 03:35:42;;;;;;;19.60;4.38;;;8.00;98.30;;;;;;5094741;28;20067;-79
2023/12/10 03:38:08;;;;;;;26.10;5.13;;;8.00;98.30;;;;;;5078528;28;20422;-82
2023/12/10 03:40:34;;;;;;;34.53;5.57;;;8.10;98.30;;;;;;5095399;28;20042;-79
2023/12/10 03:43:00;;;;;;;32.10;7.28;;;8.10;98.20;;;;;;5078214;28;20487;-81
2023/12/10 03:45:25;;;;;;;23.42;5.70;;;8.10;98.30;;;;;;5095287;28;20032;-82
2023/12/10 03:47:51;;;;;;;33.60;6.65;;;8.10;98.30;;;;;;5095268;28;20057;-82
2023/12/10 03:50:17;;;;;;;24.80;6.60;;;8.20;98.20;;;;;;5094980;28;20070;-80
2023/12/10 03:52:43;;;;;;;31.30;6.50;;;8.20;98.20;;;;;;5095163;28;20075;-79
2023/12/10 03:55:09;;;;;;;31.50;5.53;;;8.20;98.30;;;;;;5078055;28;20032;-81
2023/12/10 03:57:35;;;;;;;26.70;5.97;;;8.20;98.30;;;;;;5095047;28;20044;-80
2023/12/10 04:00:05;;;;;;;38.00;6.30;;;8.30;98.20;;;;;;5095086;28;20403;-78
2023/12/10 04:02:30;;;;;;;36.75;7.72;;;8.30;98.40;;;;;;5094920;28;20040;-84
2023/12/10 04:04:56;;;;;;;42.58;6.65;;;8.40;98.30;;;;;;5077732;28;20036;-79
2023/12/10 04:07:22;;;;;;;43.83;8.25;;;8.30;98.20;;;;;;5078000;28;20040;-80
2023/12/10 04:09:47;;;;;;;26.45;5.93;;;8.30;98.30;;;;;;5077857;28;20527;-79
2023/12/10 04:12:13;;;;;;;22.95;5.43;;;8.40;98.20;;;;;;5095068;28;20044;-80
2023/12/10 04:14:39;;;;;;;30.77;6.90;;;8.40;98.10;;;;;;5094524;28;20138;-83
2023/12/10 04:17:05;;;;;;;19.00;4.72;;;8.40;98.00;;;;;;5094380;28;20047;-80
2023/12/10 04:19:30;;;;;;;20.73;5.47;;;8.40;98.10;;;;;;5094748;28;20043;-78
2023/12/10 04:21:56;;;;;;;30.10;5.57;;;8.50;98.00;;;;;;5094514;28;20044;-81
2023/12/10 04:24:22;;;;;;;20.05;4.63;;;8.40;97.90;;;;;;5077864;28;20046;-81
2023/12/10 04:26:47;;;;;;;25.65;4.95;;;8.50;97.90;;;;;;5111271;28;20072;-79
2023/12/10 04:29:13;;;;;;;22.52;5.00;;;8.50;97.90;;;;;;5077364;28;20044;-81
2023/12/10 04:31:39;;;;;;;18.60;4.20;;;8.40;98.00;;;;;;5077370;28;20553;-78
2023/12/10 04:34:04;;;;;;;24.85;4.82;;;8.50;98.00;;;;;;5077404;28;20036;-81
2023/12/10 04:36:30;;;;;;;25.65;5.68;;;8.60;97.90;;;;;;5093943;28;20544;-82
2023/12/10 04:38:56;;;;;;;22.83;4.93;;;8.50;97.70;;;;;;5094163;28;20032;-80
2023/12/10 04:41:22;;;;;;;30.83;7.28;;;8.50;97.80;;;;;;5094196;28;20028;-82
2023/12/10 04:43:48;;;;;;;17.63;4.30;;;8.60;97.60;;;;;;5093859;28;20421;-80
2023/12/10 04:46:16;;;;;;;31.45;7.40;;;8.50;97.60;;;;;;5094165;28;20100;-78
2023/12/10 04:48:42;;;;;;;22.90;5.20;;;8.50;97.60;;;;;;5077108;28;20444;-81
2023/12/10 04:51:09;;;;;;;27.02;5.00;;;8.50;97.70;;;;;;5093566;28;20043;-82
2023/12/10 04:53:35;;;;;;;21.92;5.07;;;8.50;97.70;;;;;;5086159;28;20047;-79
2023/12/10 04:56:01;;;;;;;17.75;4.60;;;8.50;97.80;;;;;;5072218;28;20040;-81
2023/12/10 04:58:27;;;;;;;12.50;3.00;;;8.60;97.70;;;;;;5075550;28;20043;-82
2023/12/10 05:00:53;;;;;;;21.17;4.57;;;8.60;97.70;;;;;;5056618;28;20082;-81
2023/12/10 05:03:18;;;;;;;24.52;6.00;;;8.50;97.60;;;;;;5073516;28;20495;-80
2023/12/10 05:05:44;;;;;;;24.40;5.15;;;8.50;97.60;;;;;;5073193;28;20072;-81
2023/12/10 05:08:10;;;;;;;18.92;3.95;;;8.60;97.70;;;;;;5073279;28;20067;-80
2023/12/10 05:10:36;;;;;;;19.38;4.13;;;8.50;97.70;;;;;;5023420;28;20063;-82
2023/12/10 05:13:01;;;;;;;23.35;4.95;;;8.60;97.70;;;;;;5073122;28;20047;-78
2023/12/10 05:15:27;;;;;;;29.27;5.22;;;8.50;97.80;;;;;;5072979;28;20048;-87
2023/12/10 05:17:53;;;;;;;15.40;3.33;;;8.50;97.80;;;;;;5072265;28;20040;-79
2023/12/10 05:20:18;;;;;;;17.65;3.45;;;8.60;97.90;;;;;;5072875;28;20041;-80
2023/12/10 05:22:44;;;;;;;16.90;3.53;;;8.50;97.90;;;;;;5039713;28;20127;-81
2023/12/10 05:25:11;;;;;;;16.95;3.42;;;8.50;98.00;;;;;;5073128;28;20042;-78
2023/12/10 05:27:36;;;;;;;17.42;3.47;;;8.50;98.00;;;;;;5056380;28;20044;-80
2023/12/10 05:30:02;;;;;;;11.95;2.95;;;8.50;97.90;;;;;;5056159;28;20545;-80
2023/12/10 05:32:28;;;;;;;11.57;2.65;;;8.50;98.00;;;;;;5056094;28;20053;-80
2023/12/10 05:34:54;;;;;;;12.40;3.05;;;8.50;97.90;;;;;;5072520;28;20076;-80
2023/12/10 05:37:20;;;;;;;16.33;2.70;;;8.50;97.90;;;;;;5055985;28;20123;-81
2023/12/10 05:39:46;;;;;;;14.55;3.85;;;8.50;97.90;;;;;;5039534;28;20119;-81
2023/12/10 05:42:11;;;;;;;11.25;2.63;;;8.40;97.80;;;;;;5073873;28;20076;-80
2023/12/10 05:44:37;;;;;;;7.50;2.65;;;8.40;97.80;;;;;;5077929;28;20036;-81
2023/12/10 05:47:03;;;;;;;9.77;2.40;;;8.40;97.80;;;;;;5039003;28;20500;-79
2023/12/10 05:49:29;;;;;;;10.23;3.28;;;8.50;97.80;;;;;;5055726;28;20093;-84
2023/12/10 05:51:55;;;;;;;14.65;2.42;;;8.40;97.60;;;;;;5055696;28;20408;-80
2023/12/10 05:54:21;;;;;;;11.98;2.60;;;8.40;97.60;;;;;;5055521;28;20051;-81
2023/12/10 05:56:46;;;;;;;20.77;2.92;;;8.50;97.80;;;;;;5072164;28;20048;-77
2023/12/10 05:59:12;;;;;;;15.52;3.95;;;8.40;97.50;;;;;;5039096;28;20086;-80
2023/12/10 06:01:38;;;;;;;11.95;2.80;;;8.40;97.60;;;;;;5072121;28;20036;-80
2023/12/10 06:04:04;;;;;;;11.90;2.67;;;8.40;97.60;;;;;;5072101;28;20040;-81
2023/12/10 06:06:29;;;;;;;9.23;2.30;;;8.50;97.50;;;;;;5055537;28;20046;-78
2023/12/10 06:08:55;;;;;;;15.02;2.85;;;8.50;97.50;;;;;;5072053;28;20070;-77
2023/12/10 06:11:21;;;;;;;10.02;2.78;;;8.50;97.40;;;;;;5071981;28;20040;-83
2023/12/10 06:13:47;;;;;;;15.27;2.45;;;8.50;97.60;;;;;;5038781;28;20044;-79
2023/12/10 06:16:13;;;;;;;12.80;2.17;;;8.50;97.50;;;;;;5071973;28;20044;-84
2023/12/10 06:18:39;;;;;;;11.82;2.60;;;8.50;97.60;;;;;;5038721;28;20481;-81
2023/12/10 06:21:05;;;;;;;10.35;2.00;;;8.50;97.70;;;;;;5038656;28;20119;-80
2023/12/10 06:23:31;;;;;;;5.35;1.50;;;8.50;97.60;;;;;;5072006;28;20036;-80
2023/12/10 06:25:56;;;;;;;3.28;1.10;;;8.50;97.70;;;;;;5040925;28;20185;-83
2023/12/10 06:28:22;;;;;;;4.65;1.55;;;8.40;97.80;;;;;;5081856;28;20424;-84
2023/12/10 06:30:48;;;;;;;5.13;1.30;;;8.50;97.80;;;;;;5056880;28;20494;-80
2023/12/10 06:33:13;;;;;;;6.90;1.55;;;8.50;97.80;;;;;;5096260;28;20399;-81
2023/12/10 06:35:39;;;;;;;11.93;1.85;;;8.50;97.90;;;;;;5079022;28;20056;-80
2023/12/10 06:38:05;;;;;;;7.70;2.10;;;8.40;97.90;;;;;;5096154;28;20044;-82
2023/12/10 06:40:30;;;;;;;8.98;2.15;;;8.50;98.00;;;;;;5079399;28;20456;-78
2023/12/10 06:42:56;;;;;;;10.75;2.13;;;8.50;98.00;;;;;;5096333;28;20040;-81
2023/12/10 06:45:22;;;;;;;10.65;2.50;;;8.50;98.00;;;;;;5079297;28;20450;-83
2023/12/10 06:47:47;;;;;;;14.82;3.22;;;8.40;98.00;;;;;;5095870;28;20036;-81
2023/12/10 06:50:13;;;;;;;10.13;2.90;;;8.40;98.10;;;;;;5079403;28;20036;-79
2023/12/10 06:52:39;;;;;;;9.00;2.45;;;8.40;98.10;;;;;;5079386;28;20127;-79
2023/12/10 06:55:05;;;;;;;7.18;1.70;;;8.40;98.20;;;;;;5079111;28;20499;-82
2023/12/10 06:57:30;;;;;;;9.60;3.00;;;8.40;98.20;;;;;;5078965;28;20132;-80
2023/12/10 06:59:56;;;;;;;14.60;3.20;;;8.50;98.00;;;;;;5078957;28;20043;-82
2023/12/10 07:02:22;;;;;;;12.90;3.13;;;8.50;98.00;;;;;;5102687;28;20028;-81
2023/12/10 07:04:48;;;;;;;19.55;3.58;;;8.40;98.10;;;;;;5073331;28;20043;-82
2023/12/10 07:07:13;;;;;;;27.30;4.32;;;8.50;98.10;;;;;;5084359;28;20044;-78
2023/12/10 07:09:39;;;;;;;17.05;4.60;;;8.50;98.10;;;;;;5104449;28;20492;-82
2023/12/10 07:12:05;;;;;;;16.10;3.85;;;8.50;98.10;;;;;;5078742;28;20036;-78
2023/12/10 07:14:31;;;;;;;20.92;5.03;;;8.50;98.00;;;;;;5064141;28;20036;-84
2023/12/10 07:16:56;;;;;;;32.25;5.85;;;8.50;97.90;;;;;;5069473;28;20051;-80
2023/12/10 07:19:23;;;;;;;20.27;5.90;;;8.50;98.00;;;;;;5078761;28;20047;-81
2023/12/10 07:21:52;;;;;;;22.85;6.07;;;8.50;98.00;;;;;;5078643;28;20036;-83
2023/12/10 07:24:19;;;;;;;19.17;4.57;;;8.40;98.10;;;;;;5095651;28;20044;-81
2023/12/10 07:26:45;;;;;;;21.08;4.80;;;8.40;98.10;;;;;;5075331;28;20055;-79
2023/12/10 07:29:11;;;;;;;29.40;5.38;;;8.50;98.10;;;;;;5093671;28;20040;-82
2023/12/10 07:31:37;;;;;;;27.00;5.72;;;8.40;98.00;;;;;;5061566;28;20040;-77
2023/12/10 07:34:02;;;;;;;24.10;4.70;;;8.40;98.10;;;;;;5044944;28;20047;-79
2023/12/10 07:36:28;;;;;;;20.45;5.65;;;8.40;98.10;;;;;;5095112;28;20051;-79
2023/12/10 07:38:54;;;;;;;22.10;4.00;;;8.40;98.10;;;;;;5095160;28;20400;-80
2023/12/10 07:41:21;;;;;;;24.10;5.22;;;8.50;98.00;;;;;;5077689;28;20043;-79
2023/12/10 07:43:47;;;;;;;18.95;3.90;;;8.40;98.00;;;;;;5078573;28;20437;-79
2023/12/10 07:46:12;;;;;;;24.63;4.25;;;8.40;97.90;;;;;;5059205;28;20040;-78
2023/12/10 07:48:38;;;;;;;22.52;3.95;;;8.40;98.00;;;;;;5057457;28;20044;-78
2023/12/10 07:51:04;;;;;;;32.83;4.85;;;8.40;98.00;;;;;;5056785;28;20119;-81
2023/12/10 07:53:30;;;;;;;18.05;3.95;;;8.40;98.00;;;;;;5057542;28;20152;-77
2023/12/10 07:55:55;;;;;;;14.98;2.67;;;8.40;98.00;;;;;;5074712;28;20047;-81
2023/12/10 07:58:22;;;;;;;23.10;4.50;;;8.40;97.90;;;;;;5046340;28;20091;-82
2023/12/10 08:00:48;;;;;;;27.42;5.03;;;8.40;97.80;;;;;;5088335;28;20120;-78
2023/12/10 08:03:14;;;;;;;16.77;4.28;;;8.40;97.70;;;;;;5088602;28;20461;-80
2023/12/10 08:05:40;;;;;;;17.90;4.35;;;8.40;97.70;;;;;;5044847;28;20044;-80
2023/12/10 08:08:06;;;;;;;25.23;4.72;;;8.40;97.60;;;;;;5074253;28;20082;-79
2023/12/10 08:10:31;;;;;;;20.73;4.32;;;8.50;97.50;;;;;;5074332;28;20476;-80
2023/12/10 08:12:58;;;;;;;21.23;4.72;;;8.40;97.20;;;;;;5074316;28;20037;-80
2023/12/10 08:15:24;;;;;;;17.70;4.07;;;8.40;97.50;;;;;;5074353;28;20123;-81
2023/12/10 08:17:50;;;;;;;25.55;4.03;;;8.50;97.20;;;;;;5074081;28;20504;-78
2023/12/10 08:20:16;;;;;;;24.13;5.13;;;8.50;96.90;;;;;;5057169;28;20127;-81
2023/12/10 08:22:41;;;;;;;24.27;5.28;;;8.50;96.80;;;;;;5058911;28;20041;-80
2023/12/10 08:25:07;;;;;;;23.13;4.35;;;8.50;96.90;;;;;;5037748;28;20037;-81
2023/12/10 08:27:33;;;;;;;22.17;4.05;;;8.50;96.90;;;;;;5048212;28;20094;-80
2023/12/10 08:29:59;;;;;;;19.63;4.07;;;8.50;96.70;;;;;;5056912;28;20539;-80
2023/12/10 08:32:27;;;;;;;24.02;4.50;;;8.50;96.50;;;;;;5057466;28;20037;-81
2023/12/10 08:34:53;;;;;;;23.45;4.50;;;8.50;96.50;;;;;;5073516;28;20057;-81
2023/12/10 08:37:18;;;;;;;15.88;3.33;;;8.60;96.30;;;;;;5056799;28;20067;-80
2023/12/10 08:39:48;;;;;;;16.55;4.10;;;8.60;96.10;;;;;;5073905;28;20037;-81
2023/12/10 08:42:13;;;;;;;12.82;4.18;;;8.60;95.50;;;;;;5057163;28;20508;-79
2023/12/10 08:44:39;;;;;;;18.67;4.47;;;8.60;95.50;;;;;;5057042;28;20044;-82
2023/12/10 08:47:05;;;;;;;15.13;3.58;;;8.60;95.40;;;;;;5038654;28;20044;-85
2023/12/10 08:49:30;;;;;;;16.33;3.20;;;8.60;95.10;;;;;;5073533;28;20044;-81
2023/12/10 08:51:56;;;;;;;13.80;3.28;;;8.70;94.90;;;;;;5038223;28;20366;-79
2023/12/10 08:54:22;;;;;;;18.15;3.45;;;8.60;94.80;;;;;;5056635;28;20048;-82
2023/12/10 08:56:47;;;;;;;11.85;2.97;;;8.70;94.50;;;;;;5073490;28;20059;-83
2023/12/10 08:59:13;;;;;;;18.73;3.90;;;8.70;94.50;;;;;;5056459;28;20485;-80
2023/12/10 09:01:39;;;;;;;19.75;3.50;;;8.70;94.60;;;;;;5072643;28;20048;-83
2023/12/10 09:04:05;;;;;;;12.05;2.85;;;8.70;94.40;;;;;;5056606;28;20116;-81
2023/12/10 09:06:32;;;;;;;17.15;5.57;;;8.80;94.30;;;;;;5040059;28;20040;-79
2023/12/10 09:08:58;;;;;;;19.45;5.07;;;8.80;94.20;;;;;;5056421;28;20093;-81
2023/12/10 09:11:26;;;;;;;22.10;5.32;;;8.80;94.40;;;;;;5039085;28;20032;-80
2023/12/10 09:13:51;;;;;;;18.60;3.55;;;8.70;94.60;;;;;;5064532;28;20046;-79
2023/12/10 09:16:18;;;;;;;17.55;3.78;;;8.70;94.80;;;;;;5073826;28;20036;-80
2023/12/10 09:18:44;;;;;;;23.42;3.90;;;8.70;94.60;;;;;;5091833;28;20526;-80
2023/12/10 09:21:10;;;;;;;20.83;5.40;;;8.70;94.70;;;;;;5091996;28;20131;-79
2023/12/10 09:23:36;;;;;;;17.92;5.75;;;8.70;94.80;;;;;;5075828;28;20040;-79
2023/12/10 09:26:02;;;;;;;17.48;3.50;;;8.60;94.70;;;;;;5075782;28;20333;-80
2023/12/10 09:28:28;;;;;;;19.15;3.97;;;8.80;94.50;;;;;;5080195;28;20459;-78
2023/12/10 09:30:54;;;;;;;22.00;3.95;;;8.80;94.40;;;;;;5055806;28;20036;-80
2023/12/10 09:33:19;;;;;;;15.95;3.58;;;8.90;94.20;;;;;;5055680;28;20055;-82
2023/12/10 09:35:45;;;;;;;14.02;3.40;;;8.90;94.20;;;;;;5055405;28;20051;-82
2023/12/10 09:38:11;;;;;;;25.08;4.75;;;8.80;94.30;;;;;;5055509;28;20041;-81
2023/12/10 09:40:38;;;;;;;20.02;4.80;;;8.90;94.40;;;;;;5048978;28;20046;-79
2023/12/10 09:43:04;;;;;;;24.33;5.63;;;8.90;94.40;;;;;;5067403;28;20389;-81
2023/12/10 09:45:30;;;;;;;19.77;5.78;;;8.80;94.70;;;;;;5056122;28;20083;-81
2023/12/10 09:47:56;;;;;;;21.75;6.70;;;8.80;94.70;;;;;;5037870;28;20040;-79
2023/12/10 09:50:23;;;;;;;22.58;6.90;;;8.80;94.80;;;;;;5082242;28;20055;-79
2023/12/10 09:52:49;;;;;;;31.85;6.15;;;8.80;94.90;;;;;;5071205;28;20047;-80
2023/12/10 09:55:17;;;;;;;24.60;5.40;;;8.70;95.00;;;;;;5078491;28;20036;-81
2023/12/10 09:57:43;;;;;;;21.35;4.97;;;8.70;95.10;;;;;;5086354;28;20552;-79
2023/12/10 10:00:09;;;;;;;34.75;6.18;;;8.60;95.40;;;;;;5038674;28;20123;-78
2023/12/10 10:02:36;;;;;;;27.20;6.28;;;8.60;95.60;;;;;;5073093;28;20170;-78
2023/12/10 10:05:03;;;;;;;32.00;6.53;;;8.60;95.60;;;;;;5104447;27;20036;-79
2023/12/10 10:07:32;;;;;;;31.45;6.45;;;8.60;95.70;;;;;;5082023;28;20056;-79
2023/12/10 10:09:58;;;;;;;27.45;5.20;;;8.70;95.40;;;;;;5075911;28;20174;-79
2023/12/10 10:12:30;;;;;;;29.08;5.97;;;8.80;95.30;;;;;;5074807;28;20503;-77
2023/12/10 10:14:58;;;;;;;31.23;8.05;;;8.70;95.30;;;;;;5091745;28;20117;-80
2023/12/10 10:17:28;;;;;;;28.27;6.80;;;8.70;95.20;;;;;;5074935;28;20040;-79
2023/12/10 10:19:54;;;;;;;37.67;7.60;;;8.70;95.30;;;;;;5075146;28;20379;-80
2023/12/10 10:22:25;;;;;;;28.60;6.30;;;8.80;95.20;;;;;;5090266;28;20480;-79
2023/12/10 10:24:52;;;;;;;25.05;6.95;;;8.80;95.10;;;;;;5091056;28;20458;-79
2023/12/10 10:27:18;;;;;;;29.27;6.03;;;8.90;95.00;;;;;;5055924;28;20040;-79
2023/12/10 10:29:44;;;;;;;24.70;5.90;;;8.90;95.00;;;;;;5073178;28;20082;-80
2023/12/10 10:32:16;;;;;;;33.38;7.38;;;9.00;94.90;;;;;;5089213;28;20504;-79
2023/12/10 10:34:46;;;;;;;35.10;6.90;;;9.00;94.70;;;;;;5090599;28;20060;-81
2023/12/10 10:37:13;;;;;;;28.90;6.57;;;9.00;94.70;;;;;;5090420;28;20048;-82
2023/12/10 10:39:38;;;;;;;36.30;7.47;;;9.00;94.80;;;;;;5073020;28;20050;-85
2023/12/10 10:42:08;;;;;;;27.20;6.93;;;9.00;94.70;;;;;;5073711;28;20423;-78
2023/12/10 10:44:36;;;;;;;26.00;5.75;;;9.00;94.80;;;;;;5057684;28;20039;-83
2023/12/10 10:47:05;;;;;;;33.35;6.95;;;9.00;94.80;;;;;;5073434;28;20122;-78
2023/12/10 10:49:33;;;;;;;31.48;6.57;;;9.00;94.70;;;;;;5073368;28;20043;-80
2023/12/10 10:52:01;;;;;;;29.30;7.35;;;9.00;94.50;;;;;;5073374;28;20085;-80
2023/12/10 10:54:28;;;;;;;20.88;6.05;;;9.00;94.40;;;;;;5091142;28;20393;-80
2023/12/10 10:56:54;;;;;;;24.38;5.95;;;9.00;94.40;;;;;;5074601;28;20403;-80
2023/12/10 10:59:30;;;;;;;34.33;8.00;;;9.00;94.40;;;;;;5074650;28;20036;-79
2023/12/10 11:02:15;;;;;;;24.83;7.95;;;9.00;94.50;;;;;;5074670;28;20043;-81
2023/12/10 11:04:41;;;;;;;27.80;7.55;;;9.00;94.30;;;;;;5057885;28;20390;-80
2023/12/10 11:07:08;;;;;;;26.30;5.05;;;9.00;94.20;;;;;;5091314;28;20040;-81
2023/12/10 11:09:54;;;;;;;29.73;6.35;;;9.00;94.40;;;;;;5074481;28;20101;-83
2023/12/10 11:12:49;;;;;;;37.53;7.47;;;8.90;94.50;;;;;;5091232;28;20048;-80
2023/12/10 11:15:17;;;;;;;33.80;8.10;;;9.00;94.30;;;;;;5092153;28;20058;-83
2023/12/10 11:17:58;;;;;;;26.10;7.68;;;9.00;94.20;;;;;;5078202;28;20048;-82
2023/12/10 11:20:31;;;;;;;31.70;6.75;;;9.10;94.20;;;;;;5094822;28;20085;-82
2023/12/10 11:23:03;;;;;;;38.50;7.93;;;9.10;94.00;;;;;;5078175;28;20047;-82
2023/12/10 11:25:39;;;;;;;36.97;7.40;;;9.10;94.10;;;;;;5065287;28;20113;-82
2023/12/10 11:28:14;;;;;;;26.38;7.57;;;9.10;94.10;;;;;;5078294;28;20032;-79
2023/12/10 11:30:41;;;;;;;33.70;8.55;;;9.10;93.80;;;;;;5070709;28;20072;-84
2023/12/10 11:33:08;;;;;;;39.80;8.43;;;9.20;93.70;;;;;;5058185;28;20488;-79
2023/12/10 11:35:35;;;;;;;27.10;7.55;;;9.10;93.80;;;;;;5041407;28;20098;-80
2023/12/10 11:38:01;;;;;;;32.60;7.60;;;9.10;93.60;;;;;;5058051;28;20037;-81
2023/12/10 11:40:27;;;;;;;31.23;6.43;;;9.10;93.30;;;;;;5058016;28;20497;-81
2023/12/10 11:42:53;;;;;;;35.08;7.35;;;9.10;93.10;;;;;;5074616;28;20036;-85
2023/12/10 11:45:19;;;;;;;24.85;6.80;;;9.10;93.00;;;;;;5041754;28;20043;-82
2023/12/10 11:47:46;;;;;;;30.65;7.43;;;9.00;93.00;;;;;;5041606;28;20447;-84
2023/12/10 11:50:14;;;;;;;34.30;7.03;;;9.00;92.80;;;;;;5041632;28;20123;-84
2023/12/10 11:52:40;;;;;;;38.67;7.57;;;9.00;92.80;;;;;;5058145;28;20040;-80
2023/12/10 11:55:07;;;;;;;26.38;6.40;;;9.10;92.50;;;;;;5078579;28;20040;-81
2023/12/10 11:57:33;;;;;;;21.17;5.20;;;9.20;92.30;;;;;;5054753;28;20044;-85
2023/12/10 12:00:16;;;;;;;35.65;7.47;;;9.30;92.30;;;;;;5038409;28;20202;-84
2023/12/10 12:02:44;;;;;;;30.40;6.78;;;9.30;92.10;;;;;;5057502;28;20032;-84
2023/12/10 12:05:15;;;;;;;31.13;6.22;;;9.30;91.90;;;;;;5073888;28;20040;-83
2023/12/10 12:07:42;;;;;;;26.15;5.55;;;9.30;91.90;;;;;;5075382;28;20040;-80
2023/12/10 12:10:10;;;;;;;29.33;6.80;;;9.30;91.60;;;;;;5057234;28;20507;-82
2023/12/10 12:12:47;;;;;;;27.92;5.63;;;9.30;91.70;;;;;;5057443;28;20059;-81
2023/12/10 12:15:14;;;;;;;28.65;6.65;;;9.20;91.70;;;;;;5057032;28;20457;-79
2023/12/10 12:17:41;;;;;;;32.10;8.32;;;9.20;91.70;;;;;;5055979;28;20046;-83
2023/12/10 12:20:24;;;;;;;35.30;7.97;;;9.10;92.00;;;;;;5056470;28;20485;-81
2023/12/10 12:22:50;;;;;;;26.95;5.72;;;9.10;91.90;;;;;;5057065;28;20119;-84
2023/12/10 12:25:16;;;;;;;29.55;5.32;;;9.10;91.60;;;;;;5073855;28;20121;-82
2023/12/10 12:27:43;;;;;;;32.85;7.00;;;9.10;91.70;;;;;;5073583;28;20193;-82
2023/12/10 12:30:09;;;;;;;30.08;6.63;;;9.00;91.80;;;;;;5073771;28;20044;-83
2023/12/10 12:32:35;;;;;;;28.58;7.03;;;9.00;91.60;;;;;;5073974;28;20047;-84
2023/12/10 12:35:01;;;;;;;25.45;5.75;;;9.00;91.80;;;;;;5073428;28;20049;-85
2023/12/10 12:37:27;;;;;;;30.42;8.70;;;9.10;91.80;;;;;;5073284;28;20056;-82
2023/12/10 12:39:54;;;;;;;26.90;7.72;;;9.00;91.80;;;;;;5073372;28;20044;-83
2023/12/10 12:42:22;;;;;;;31.65;7.07;;;9.00;91.60;;;;;;5056952;28;20435;-81
2023/12/10 12:44:48;;;;;;;23.25;5.82;;;9.00;91.60;;;;;;5057002;28;20044;-82